createdAt,value
2022-09-23T00:02:31.681Z,9.70
2022-09-23T00:05:33.495Z,9.70
2022-09-23T00:08:35.141Z,9.70
2022-09-23T00:11:37.481Z,9.70
2022-09-23T00:14:39.789Z,9.70
2022-09-23T00:17:42.237Z,9.60
2022-09-23T00:20:44.830Z,9.60
2022-09-23T00:23:46.623Z,9.60
2022-09-23T00:26:48.233Z,9.60
2022-09-23T00:29:49.870Z,9.50
2022-09-23T00:32:52.863Z,9.60
2022-09-23T00:36:03.024Z,9.80
2022-09-23T00:39:04.879Z,9.50
2022-09-23T00:42:12.665Z,9.40
2022-09-23T00:45:15.144Z,9.50
2022-09-23T00:48:20.996Z,9.50
2022-09-23T00:51:27.497Z,9.50
2022-09-23T00:54:29.829Z,9.40
2022-09-23T00:57:32.122Z,9.40
2022-09-23T01:01:24.843Z,9.50
2022-09-23T01:04:29.767Z,9.50
2022-09-23T01:07:31.516Z,9.40
2022-09-23T01:10:51.592Z,9.50
2022-09-23T01:14:09.625Z,9.40
2022-09-23T01:17:27.262Z,9.30
2022-09-23T01:20:50.604Z,9.30
2022-09-23T01:24:09.521Z,9.30
2022-09-23T01:27:22.103Z,9.30
2022-09-23T01:30:46.035Z,9.40
2022-09-23T01:34:07.298Z,9.30
2022-09-23T01:37:54.256Z,9.20
2022-09-23T01:41:12.710Z,9.20
2022-09-23T01:44:49.332Z,9.20
2022-09-23T01:48:18.947Z,9.20
2022-09-23T01:51:35.578Z,9.20
2022-09-23T01:54:46.493Z,9.20
2022-09-23T01:57:54.998Z,9.10
2022-09-23T02:01:03.124Z,9.10
2022-09-23T02:04:15.344Z,9.10
2022-09-23T02:07:28.471Z,9.20
2022-09-23T02:10:38.047Z,9.20
2022-09-23T02:13:55.891Z,9.20
2022-09-23T02:17:03.391Z,9.10
2022-09-23T02:20:06.998Z,9.20
2022-09-23T02:23:13.020Z,9.10
2022-09-23T02:26:25.053Z,9.10
2022-09-23T02:29:38.287Z,9.10
2022-09-23T02:32:54.334Z,9.10
2022-09-23T02:36:03.366Z,9.30
2022-09-23T02:39:11.150Z,9.10
2022-09-23T02:42:15.336Z,9.10
2022-09-23T02:45:17.352Z,9.00
2022-09-23T02:48:26.957Z,9.00
2022-09-23T02:51:34.378Z,8.90
2022-09-23T02:54:37.230Z,8.80
2022-09-23T02:57:38.953Z,8.80
2022-09-23T03:01:18.914Z,8.90
2022-09-23T03:04:26.790Z,8.90
2022-09-23T03:07:53.940Z,9.10
2022-09-23T03:10:59.441Z,8.90
2022-09-23T03:14:21.944Z,8.90
2022-09-23T03:17:33.721Z,8.90
2022-09-23T03:20:42.650Z,8.90
2022-09-23T03:23:46.065Z,8.80
2022-09-23T03:26:49.783Z,8.90
2022-09-23T03:29:54.121Z,8.80
2022-09-23T03:33:00.094Z,8.90
2022-09-23T03:36:25.225Z,8.80
2022-09-23T03:39:47.119Z,8.90
2022-09-23T03:42:54.384Z,8.80
2022-09-23T03:45:57.786Z,8.70
2022-09-23T03:49:27.269Z,8.70
2022-09-23T03:52:29.017Z,8.70
2022-09-23T03:55:32.060Z,8.70
2022-09-23T03:58:33.654Z,8.90
2022-09-23T04:01:35.220Z,8.60
2022-09-23T04:04:37.713Z,8.50
2022-09-23T04:07:39.516Z,8.50
2022-09-23T04:10:41.974Z,8.50
2022-09-23T04:13:43.677Z,8.50
2022-09-23T04:16:46.977Z,8.50
2022-09-23T04:19:48.656Z,8.50
2022-09-23T04:22:50.255Z,8.40
2022-09-23T04:25:51.848Z,8.40
2022-09-23T04:28:55.161Z,8.50
2022-09-23T04:31:57.662Z,8.50
2022-09-23T04:34:59.308Z,8.50
2022-09-23T04:38:00.909Z,8.40
2022-09-23T04:41:02.801Z,8.40
2022-09-23T04:44:04.924Z,8.40
2022-09-23T04:47:06.691Z,8.40
2022-09-23T04:50:08.759Z,8.40
2022-09-23T04:53:10.358Z,8.30
2022-09-23T04:56:14.828Z,8.30
2022-09-23T04:59:16.545Z,8.30
2022-09-23T05:02:18.214Z,8.80
2022-09-23T05:05:23.596Z,8.40
2022-09-23T05:08:25.199Z,8.60
2022-09-23T05:11:29.117Z,8.30
2022-09-23T05:14:30.701Z,8.30
2022-09-23T05:17:32.380Z,8.40
2022-09-23T05:20:34.073Z,8.30
2022-09-23T05:23:36.420Z,8.30
2022-09-23T05:26:39.527Z,8.40
2022-09-23T05:29:41.138Z,8.50
2022-09-23T05:32:42.752Z,8.40
2022-09-23T05:35:48.032Z,8.40
2022-09-23T05:38:51.153Z,8.50
2022-09-23T05:41:53.759Z,8.50
2022-09-23T05:44:56.134Z,8.60
2022-09-23T05:47:59.171Z,8.70
2022-09-23T05:51:01.652Z,9.00
2022-09-23T05:54:05.075Z,9.20
2022-09-23T05:57:06.727Z,9.50
2022-09-23T06:00:09.292Z,9.50
2022-09-23T06:03:18.734Z,9.90
2022-09-23T06:06:26.012Z,10.30
2022-09-23T06:09:27.595Z,10.50
2022-09-23T06:12:29.233Z,10.70
2022-09-23T06:15:30.882Z,10.60
2022-09-23T06:18:32.576Z,10.60
2022-09-23T06:21:39.494Z,10.80
2022-09-23T06:24:47.237Z,10.90
2022-09-23T06:27:55.981Z,11.20
2022-09-23T06:30:59.045Z,11.40
2022-09-23T06:34:12.183Z,11.50
2022-09-23T06:37:20.166Z,11.70
2022-09-23T06:40:22.662Z,11.90
2022-09-23T06:43:28.768Z,12.10
2022-09-23T06:46:31.894Z,12.40
2022-09-23T06:49:33.894Z,12.60
2022-09-23T06:52:35.529Z,12.70
2022-09-23T06:55:37.124Z,12.90
2022-09-23T06:58:39.896Z,13.20
2022-09-23T07:01:41.834Z,12.80
2022-09-23T07:04:43.605Z,12.80
2022-09-23T07:07:45.447Z,12.80
2022-09-23T07:10:54.950Z,12.80
2022-09-23T07:13:57.762Z,12.70
2022-09-23T07:16:59.914Z,12.80
2022-09-23T07:20:02.018Z,12.90
2022-09-23T07:23:03.662Z,13.00
2022-09-23T07:26:07.707Z,13.50
2022-09-23T07:29:13.647Z,13.20
2022-09-23T07:32:15.625Z,13.50
2022-09-23T07:35:17.411Z,13.70
2022-09-23T07:38:19.090Z,13.50
2022-09-23T07:41:20.762Z,14.10
2022-09-23T07:44:22.638Z,14.10
2022-09-23T07:47:24.338Z,14.20
2022-09-23T07:50:26.035Z,14.00
2022-09-23T07:53:28.409Z,13.80
2022-09-23T07:56:42.988Z,14.30
2022-09-23T07:59:44.571Z,14.10
2022-09-23T08:02:49.561Z,14.30
2022-09-23T08:06:25.079Z,14.50
2022-09-23T08:09:32.542Z,14.80
2022-09-23T08:12:34.329Z,15.20
2022-09-23T08:15:35.958Z,15.40
2022-09-23T08:18:47.697Z,15.80
2022-09-23T08:21:52.025Z,15.70
2022-09-23T08:24:56.001Z,16.00
2022-09-23T08:27:58.366Z,16.20
2022-09-23T08:31:00.304Z,16.30
2022-09-23T08:34:02.936Z,16.70
2022-09-23T08:37:04.742Z,16.90
2022-09-23T08:40:06.958Z,16.90
2022-09-23T08:43:28.235Z,17.10
2022-09-23T08:46:42.197Z,17.30
2022-09-23T08:49:53.305Z,17.50
2022-09-23T08:53:01.512Z,17.70
2022-09-23T08:56:18.212Z,17.90
2022-09-23T08:59:40.168Z,18.10
2022-09-23T09:02:41.951Z,18.20
2022-09-23T09:05:53.608Z,18.10
2022-09-23T09:09:02.942Z,18.10
2022-09-23T09:12:29.111Z,18.10
2022-09-23T09:15:33.822Z,18.20
2022-09-23T09:18:44.052Z,18.10
2022-09-23T09:21:49.519Z,18.10
2022-09-23T09:24:54.163Z,18.20
2022-09-23T09:27:57.080Z,18.10
2022-09-23T09:31:14.885Z,18.30
2022-09-23T09:34:25.136Z,18.50
2022-09-23T09:37:37.599Z,18.60
2022-09-23T09:40:47.152Z,18.60
2022-09-23T09:43:50.568Z,18.80
2022-09-23T09:47:13.660Z,18.70
2022-09-23T09:51:02.195Z,18.70
2022-09-23T09:54:24.596Z,18.80
2022-09-23T09:57:35.063Z,19.00
2022-09-23T10:00:44.033Z,19.00
2022-09-23T10:03:46.701Z,19.00
2022-09-23T10:07:09.754Z,19.10
2022-09-23T10:10:31.760Z,19.10
2022-09-23T10:13:36.169Z,19.00
2022-09-23T10:16:37.961Z,19.20
2022-09-23T10:19:45.828Z,19.30
2022-09-23T10:22:47.599Z,19.00
2022-09-23T10:26:05.285Z,19.00
2022-09-23T10:29:30.047Z,18.90
2022-09-23T10:32:37.192Z,18.80
2022-09-23T10:35:56.578Z,18.60
2022-09-23T10:39:22.794Z,18.60
2022-09-23T10:43:05.538Z,18.40
2022-09-23T10:46:45.830Z,18.40
2022-09-23T10:50:03.713Z,18.30
2022-09-23T10:53:20.248Z,18.40
2022-09-23T10:56:42.893Z,18.50
2022-09-23T11:00:10.854Z,18.30
2022-09-23T11:03:26.897Z,18.10
2022-09-23T11:07:01.413Z,18.10
2022-09-23T11:10:45.585Z,18.10
2022-09-23T11:14:17.009Z,18.10
2022-09-23T11:17:34.237Z,18.30
2022-09-23T11:20:56.948Z,18.20
2022-09-23T11:23:58.714Z,18.30
2022-09-23T11:27:25.919Z,18.20
2022-09-23T11:30:45.848Z,18.40
2022-09-23T11:34:02.796Z,18.30
2022-09-23T11:37:36.784Z,18.30
2022-09-23T11:40:43.845Z,18.30
2022-09-23T11:43:52.619Z,18.20
2022-09-23T11:47:04.480Z,18.10
2022-09-23T11:50:18.741Z,18.00
2022-09-23T11:53:37.500Z,18.00
2022-09-23T11:56:47.752Z,17.90
2022-09-23T11:59:56.974Z,17.80
2022-09-23T12:03:22.923Z,17.90
2022-09-23T12:06:47.986Z,18.00
2022-09-23T12:10:07.602Z,18.00
2022-09-23T12:13:19.041Z,17.90
2022-09-23T12:16:29.633Z,17.80
2022-09-23T12:19:47.292Z,17.90
2022-09-23T12:22:55.231Z,18.00
2022-09-23T12:26:02.820Z,17.90
2022-09-23T12:29:05.969Z,17.80
2022-09-23T12:32:09.919Z,17.80
2022-09-23T12:35:25.506Z,17.80
2022-09-23T12:38:46.850Z,17.70
2022-09-23T12:41:51.420Z,17.60
2022-09-23T12:45:17.321Z,17.50
2022-09-23T12:48:18.899Z,17.50
2022-09-23T12:51:23.400Z,17.40
2022-09-23T12:54:25.112Z,17.30
2022-09-23T12:57:35.857Z,17.40
2022-09-23T13:00:37.491Z,17.50
2022-09-23T13:04:04.232Z,17.40
2022-09-23T13:07:08.806Z,17.40
2022-09-23T13:10:31.823Z,17.50
2022-09-23T13:13:40.138Z,17.60
2022-09-23T13:16:44.236Z,17.60
2022-09-23T13:19:46.172Z,17.50
2022-09-23T13:22:53.396Z,17.40
2022-09-23T13:25:59.419Z,17.40
2022-09-23T13:29:02.405Z,17.40
2022-09-23T13:32:05.822Z,17.40
2022-09-23T13:35:14.051Z,17.50
2022-09-23T13:38:24.937Z,17.50
2022-09-23T13:41:28.629Z,17.70
2022-09-23T13:44:30.771Z,17.70
2022-09-23T13:47:35.754Z,17.70
2022-09-23T13:50:40.801Z,17.70
2022-09-23T13:53:42.423Z,17.70
2022-09-23T13:56:49.002Z,17.70
2022-09-23T13:59:50.648Z,17.80
2022-09-23T14:02:55.308Z,17.80
2022-09-23T14:06:03.869Z,17.70
2022-09-23T14:09:06.456Z,17.60
2022-09-23T14:12:09.869Z,17.60
2022-09-23T14:15:17.337Z,17.60
2022-09-23T14:18:27.308Z,17.60
2022-09-23T14:21:37.720Z,17.70
2022-09-23T14:24:39.557Z,17.70
2022-09-23T14:27:42.448Z,17.70
2022-09-23T14:30:46.206Z,17.70
2022-09-23T14:33:47.900Z,17.50
2022-09-23T14:37:08.014Z,17.50
2022-09-23T14:40:21.959Z,17.40
2022-09-23T14:43:28.416Z,17.30
2022-09-23T14:46:40.171Z,17.30
2022-09-23T14:50:10.707Z,17.30
2022-09-23T14:53:24.013Z,17.20
2022-09-23T14:56:25.862Z,17.10
2022-09-23T14:59:33.586Z,17.00
2022-09-23T15:02:35.241Z,17.10
2022-09-23T15:05:44.283Z,17.10
2022-09-23T15:08:47.935Z,17.10
2022-09-23T15:11:59.761Z,17.00
2022-09-23T15:15:01.623Z,17.00
2022-09-23T15:18:06.265Z,17.10
2022-09-23T15:21:14.377Z,17.10
2022-09-23T15:24:55.740Z,17.10
2022-09-23T15:28:19.220Z,17.10
2022-09-23T15:31:25.454Z,17.20
2022-09-23T15:34:27.132Z,17.20
2022-09-23T15:37:31.760Z,17.20
2022-09-23T15:40:37.667Z,17.20
2022-09-23T15:43:41.713Z,17.20
2022-09-23T15:46:46.973Z,17.30
2022-09-23T15:49:48.787Z,17.20
2022-09-23T15:52:50.516Z,17.10
2022-09-23T15:55:52.621Z,17.00
2022-09-23T15:58:54.461Z,16.90
2022-09-23T16:01:58.113Z,16.90
2022-09-23T16:05:02.714Z,16.80
2022-09-23T16:08:08.891Z,16.80
2022-09-23T16:11:24.038Z,16.70
2022-09-23T16:14:25.732Z,16.70
2022-09-23T16:17:44.713Z,16.60
2022-09-23T16:20:47.279Z,16.60
2022-09-23T16:23:51.186Z,16.50
2022-09-23T16:26:52.840Z,16.40
2022-09-23T16:29:54.506Z,16.30
2022-09-23T16:32:56.474Z,16.20
2022-09-23T16:36:00.846Z,16.20
2022-09-23T16:39:07.074Z,16.10
2022-09-23T16:42:09.697Z,16.00
2022-09-23T16:45:11.929Z,16.00
2022-09-23T16:48:13.610Z,16.00
2022-09-23T16:51:21.188Z,16.00
2022-09-23T16:54:23.825Z,15.90
2022-09-23T16:57:25.424Z,15.90
2022-09-23T17:00:45.453Z,15.90
2022-09-23T17:03:49.213Z,15.70
2022-09-23T17:06:52.525Z,15.60
2022-09-23T17:09:54.104Z,15.40
2022-09-23T17:12:55.981Z,15.30
2022-09-23T17:15:57.776Z,15.20
2022-09-23T17:18:59.428Z,15.10
2022-09-23T17:22:01.040Z,14.90
2022-09-23T17:25:03.782Z,14.90
2022-09-23T17:28:05.524Z,14.90
2022-09-23T17:31:07.590Z,14.80
2022-09-23T17:34:09.481Z,14.80
2022-09-23T17:37:11.162Z,14.80
2022-09-23T17:40:13.112Z,14.70
2022-09-23T17:43:14.737Z,14.60
2022-09-23T17:46:19.581Z,14.70
2022-09-23T17:49:24.073Z,14.70
2022-09-23T17:52:25.765Z,14.70
2022-09-23T17:55:27.473Z,14.60
2022-09-23T17:58:30.909Z,14.60
2022-09-23T18:01:32.692Z,14.50
2022-09-23T18:04:34.324Z,14.50
2022-09-23T18:07:35.928Z,14.50
2022-09-23T18:10:37.519Z,14.50
2022-09-23T18:13:39.114Z,14.50
2022-09-23T18:16:42.278Z,14.50
2022-09-23T18:19:48.964Z,14.50
2022-09-23T18:22:50.545Z,14.40
2022-09-23T18:25:52.218Z,14.40
2022-09-23T18:29:00.652Z,14.40
2022-09-23T18:32:02.793Z,14.30
2022-09-23T18:35:12.785Z,14.30
2022-09-23T18:38:14.557Z,14.30
2022-09-23T18:41:16.919Z,14.20
2022-09-23T18:44:19.868Z,14.10
2022-09-23T18:47:40.645Z,14.10
2022-09-23T18:50:47.313Z,14.10
2022-09-23T18:53:50.167Z,14.10
2022-09-23T18:56:54.625Z,14.00
2022-09-23T18:59:59.810Z,14.00
2022-09-23T19:03:01.585Z,14.00
2022-09-23T19:06:05.562Z,14.00
2022-09-23T19:09:07.531Z,14.00
2022-09-23T19:12:09.276Z,14.00
2022-09-23T19:15:11.100Z,14.00
2022-09-23T19:18:12.718Z,14.00
2022-09-23T19:21:17.465Z,13.90
2022-09-23T19:24:20.450Z,14.00
2022-09-23T19:27:23.406Z,14.00
2022-09-23T19:30:25.056Z,13.90
2022-09-23T19:33:26.658Z,13.90
2022-09-23T19:36:31.156Z,13.90
2022-09-23T19:39:34.512Z,14.00
2022-09-23T19:42:37.140Z,13.90
2022-09-23T19:45:39.260Z,13.90
2022-09-23T19:48:41.232Z,13.90
2022-09-23T19:51:44.089Z,13.90
2022-09-23T19:54:48.553Z,13.90
2022-09-23T19:57:50.133Z,13.90
2022-09-23T20:01:11.938Z,13.90
2022-09-23T20:04:15.474Z,14.00
2022-09-23T20:07:19.188Z,14.00
2022-09-23T20:10:22.586Z,13.90
2022-09-23T20:13:24.230Z,13.90
2022-09-23T20:16:27.854Z,13.90
2022-09-23T20:19:29.558Z,13.90
2022-09-23T20:22:34.043Z,13.80
2022-09-23T20:25:54.156Z,13.80
2022-09-23T20:28:55.743Z,13.80
2022-09-23T20:31:58.585Z,13.80
2022-09-23T20:35:03.653Z,13.90
2022-09-23T20:38:08.147Z,13.90
2022-09-23T20:41:10.037Z,13.90
2022-09-23T20:44:12.285Z,13.80
2022-09-23T20:47:16.201Z,13.80
2022-09-23T20:50:17.893Z,13.80
2022-09-23T20:53:22.081Z,13.70
2022-09-23T20:56:24.350Z,13.80
2022-09-23T20:59:27.346Z,13.80
2022-09-23T21:02:28.994Z,13.80
2022-09-23T21:05:30.860Z,13.80
2022-09-23T21:08:33.625Z,13.80
2022-09-23T21:11:35.584Z,13.80
2022-09-23T21:14:37.182Z,13.80
2022-09-23T21:17:38.794Z,13.80
2022-09-23T21:20:40.377Z,13.80
2022-09-23T21:23:43.345Z,13.80
2022-09-23T21:26:47.261Z,13.70
2022-09-23T21:29:48.865Z,13.70
2022-09-23T21:32:50.472Z,13.60
2022-09-23T21:35:56.390Z,13.60
2022-09-23T21:38:58.973Z,13.60
2022-09-23T21:42:01.423Z,13.60
2022-09-23T21:45:04.112Z,13.50
2022-09-23T21:48:05.726Z,13.50
2022-09-23T21:51:09.652Z,13.40
2022-09-23T21:54:14.563Z,13.40
2022-09-23T21:57:16.218Z,13.40
2022-09-23T22:00:17.851Z,13.30
2022-09-23T22:03:20.112Z,13.40
2022-09-23T22:06:27.439Z,13.40
2022-09-23T22:09:29.083Z,13.40
2022-09-23T22:12:30.705Z,13.40
2022-09-23T22:15:36.605Z,13.50
2022-09-23T22:18:38.195Z,13.50
2022-09-23T22:21:41.656Z,13.50
2022-09-23T22:24:44.857Z,13.40
2022-09-23T22:28:04.781Z,13.50
2022-09-23T22:31:26.166Z,13.50
2022-09-23T22:34:48.365Z,13.50
2022-09-23T22:37:50.390Z,13.50
2022-09-23T22:40:52.032Z,13.50
2022-09-23T22:43:53.841Z,13.40
2022-09-23T22:46:57.021Z,13.40
2022-09-23T22:50:00.649Z,13.30
2022-09-23T22:53:02.220Z,13.30
2022-09-23T22:56:03.889Z,13.30
2022-09-23T22:59:07.349Z,13.30
2022-09-23T23:02:08.994Z,13.40
2022-09-23T23:05:11.016Z,13.30
2022-09-23T23:08:12.876Z,13.30
2022-09-23T23:11:15.552Z,13.30
2022-09-23T23:14:18.633Z,13.30
2022-09-23T23:17:20.220Z,13.30
2022-09-23T23:20:21.821Z,13.20
2022-09-23T23:23:23.428Z,13.20
2022-09-23T23:26:31.293Z,13.20
2022-09-23T23:29:34.325Z,13.10
2022-09-23T23:32:35.926Z,13.10
2022-09-23T23:35:37.587Z,13.10
2022-09-23T23:38:40.942Z,13.10
2022-09-23T23:41:42.579Z,13.10
2022-09-23T23:44:44.294Z,13.00
2022-09-23T23:47:46.317Z,13.00
2022-09-23T23:50:58.945Z,13.00
2022-09-23T23:54:00.722Z,13.00
2022-09-23T23:57:02.372Z,13.00
